Time;durP1;ratioP1;P1;durP2;ratioP2;P2;SDS_P1;SDS_P2;PMS_P1;PMS_P2;Temp;Humidity;BMP_temperature;BMP_pressure;BME280_temperature;BME280_humidity;BME280_pressure;Samples;Min_cycle;Max_cycle;Signal;HPM_P1;HPM_P2
2023/01/20 00:01:58;;;;;;;;;;;;;;;;;;10282364;28;19971;-63
2023/01/20 00:06:56;;;;;;;;;;;;;;;;;;10275015;28;19964;-63
2023/01/20 00:11:54;;;;;;;;;;;;;;;;;;10290533;28;19952;-63
2023/01/20 00:16:52;;;;;;;;;;;;;;;;;;10287651;28;20444;-63
2023/01/20 00:21:50;;;;;;;;;;;;;;;;;;10292348;28;19971;-63
2023/01/20 00:26:48;;;;;;;;;;;;;;;;;;10291445;28;19956;-63
2023/01/20 00:31:46;;;;;;;;;;;;;;;;;;10268780;28;19959;-62
2023/01/20 00:36:44;;;;;;;;;;;;;;;;;;10269826;28;19956;-63
2023/01/20 00:41:42;;;;;;;;;;;;;;;;;;10290624;28;19970;-63
2023/01/20 00:46:42;;;;;;;;;;;;;;;;;;10292097;28;19966;-63
2023/01/20 00:51:40;;;;;;;;;;;;;;;;;;10292153;28;19960;-62
2023/01/20 00:56:37;;;;;;;;;;;;;;;;;;10292819;28;19958;-63
2023/01/20 01:01:35;;;;;;;;;;;;;;;;;;10293180;28;19959;-63
2023/01/20 01:06:33;;;;;;;;;;;;;;;;;;10290689;28;19968;-64
2023/01/20 01:11:31;;;;;;;;;;;;;;;;;;10288995;28;19962;-63
2023/01/20 01:16:29;;;;;;;;;;;;;;;;;;10293151;28;19960;-63
2023/01/20 01:21:27;;;;;;;;;;;;;;;;;;10291075;28;19967;-63
2023/01/20 01:26:25;;;;;;;;;;;;;;;;;;10290819;28;19962;-63
2023/01/20 01:31:23;;;;;;;;;;;;;;;;;;10288838;28;20348;-64
2023/01/20 01:36:21;;;;;;;;;;;;;;;;;;10291853;28;19970;-63
2023/01/20 01:41:19;;;;;;;;;;;;;;;;;;10291893;28;19963;-63
2023/01/20 01:46:16;;;;;;;;;;;;;;;;;;10290524;28;19956;-63
2023/01/20 01:51:14;;;;;;;;;;;;;;;;;;10291086;28;19960;-64
2023/01/20 01:56:12;;;;;;;;;;;;;;;;;;10291596;28;20389;-63
2023/01/20 02:01:10;;;;;;;;;;;;;;;;;;10290159;28;19963;-63
2023/01/20 02:06:08;;;;;;;;;;;;;;;;;;10289587;28;19951;-64
2023/01/20 02:11:06;;;;;;;;;;;;;;;;;;10288667;28;19975;-63
2023/01/20 02:16:04;;;;;;;;;;;;;;;;;;10291785;28;19956;-63
2023/01/20 02:21:01;;;;;;;;;;;;;;;;;;10290494;28;19968;-63
2023/01/20 02:25:59;;;;;;;;;;;;;;;;;;10288334;28;19968;-63
2023/01/20 02:30:57;;;;;;;;;;;;;;;;;;10293504;28;19974;-63
2023/01/20 02:35:55;;;;;;;;;;;;;;;;;;10297074;28;20373;-64
2023/01/20 02:40:53;;;;;;;;;;;;;;;;;;10298958;28;19955;-62
2023/01/20 02:45:51;;;;;;;;;;;;;;;;;;10295520;28;19959;-62
2023/01/20 02:50:49;;;;;;;;;;;;;;;;;;10298518;28;19970;-63
2023/01/20 02:55:47;;;;;;;;;;;;;;;;;;10295538;28;19975;-63
2023/01/20 03:00:44;;;;;;;;;;;;;;;;;;10295471;28;20488;-63
2023/01/20 03:05:42;;;;;;;;;;;;;;;;;;10298516;28;19952;-64
2023/01/20 03:10:40;;;;;;;;;;;;;;;;;;10296377;28;20396;-62
2023/01/20 03:15:38;;;;;;;;;;;;;;;;;;10295695;28;19956;-63
2023/01/20 03:20:36;;;;;;;;;;;;;;;;;;10296284;28;19959;-64
2023/01/20 03:25:34;;;;;;;;;;;;;;;;;;10293761;28;19978;-64
2023/01/20 03:30:32;;;;;;;;;;;;;;;;;;10295640;28;19972;-63
2023/01/20 03:35:30;;;;;;;;;;;;;;;;;;10295943;28;19978;-63
2023/01/20 03:40:28;;;;;;;;;;;;;;;;;;10295143;28;20402;-63
2023/01/20 03:45:26;;;;;;;;;;;;;;;;;;10295323;28;19966;-62
2023/01/20 03:50:24;;;;;;;;;;;;;;;;;;10295153;28;19966;-62
2023/01/20 03:55:22;;;;;;;;;;;;;;;;;;10294684;28;20385;-62
2023/01/20 04:00:19;;;;;;;;;;;;;;;;;;10294197;28;19952;-62
2023/01/20 04:05:17;;;;;;;;;;;;;;;;;;10293090;28;19964;-63
2023/01/20 04:10:15;;;;;;;;;;;;;;;;;;10294870;28;20424;-63
2023/01/20 04:15:13;;;;;;;;;;;;;;;;;;10293927;28;19960;-63
2023/01/20 04:20:11;;;;;;;;;;;;;;;;;;10295672;28;19971;-63
2023/01/20 04:25:10;;;;;;;;;;;;;;;;;;10292880;28;19971;-63
2023/01/20 04:30:08;;;;;;;;;;;;;;;;;;10292118;28;19959;-64
2023/01/20 04:35:06;;;;;;;;;;;;;;;;;;10291395;28;19956;-63
2023/01/20 04:40:04;;;;;;;;;;;;;;;;;;10293145;28;19967;-63
2023/01/20 04:45:02;;;;;;;;;;;;;;;;;;10290753;28;19960;-63
2023/01/20 04:49:59;;;;;;;;;;;;;;;;;;10293317;28;19959;-63
2023/01/20 04:54:57;;;;;;;;;;;;;;;;;;10290349;28;19925;-63
2023/01/20 04:59:55;;;;;;;;;;;;;;;;;;10291778;28;19972;-64
2023/01/20 05:04:53;;;;;;;;;;;;;;;;;;10287611;28;20436;-64
2023/01/20 05:09:51;;;;;;;;;;;;;;;;;;10293010;28;19959;-63
2023/01/20 05:14:49;;;;;;;;;;;;;;;;;;10288516;28;20357;-63
2023/01/20 05:19:47;;;;;;;;;;;;;;;;;;10291712;28;19975;-64
2023/01/20 05:24:45;;;;;;;;;;;;;;;;;;10289512;28;19971;-64
2023/01/20 05:29:42;;;;;;;;;;;;;;;;;;10290364;28;19920;-63
2023/01/20 05:34:40;;;;;;;;;;;;;;;;;;10275808;28;20341;-64
2023/01/20 05:39:38;;;;;;;;;;;;;;;;;;10274398;28;19952;-63
2023/01/20 05:44:36;;;;;;;;;;;;;;;;;;10285045;28;19959;-63
2023/01/20 05:49:37;;;;;;;;;;;;;;;;;;10280833;28;19963;-63
2023/01/20 05:54:35;;;;;;;;;;;;;;;;;;10289248;28;19963;-64
2023/01/20 05:59:33;;;;;;;;;;;;;;;;;;10284478;28;19952;-63
2023/01/20 06:04:30;;;;;;;;;;;;;;;;;;10287843;28;20419;-64
2023/01/20 06:09:28;;;;;;;;;;;;;;;;;;10297408;28;19956;-64
2023/01/20 06:14:26;;;;;;;;;;;;;;;;;;10299003;28;19979;-63
2023/01/20 06:19:24;;;;;;;;;;;;;;;;;;10294816;28;19956;-63
2023/01/20 06:24:22;;;;;;;;;;;;;;;;;;10294360;28;19970;-64
2023/01/20 06:29:20;;;;;;;;;;;;;;;;;;10297134;28;19963;-62
2023/01/20 06:34:18;;;;;;;;;;;;;;;;;;10298154;28;19962;-64
2023/01/20 06:39:16;;;;;;;;;;;;;;;;;;10297266;28;19960;-63
2023/01/20 06:44:14;;;;;;;;;;;;;;;;;;10294112;28;20424;-64
2023/01/20 06:49:13;;;;;;;;;;;;;;;;;;10298093;28;20432;-63
2023/01/20 06:54:11;;;;;;;;;;;;;;;;;;10297072;28;19928;-60
2023/01/20 06:59:09;;;;;;;;;;;;;;;;;;10297505;28;19960;-61
2023/01/20 07:04:07;;;;;;;;;;;;;;;;;;10296895;28;19964;-62
2023/01/20 07:09:05;;;;;;;;;;;;;;;;;;10295881;28;19963;-61
2023/01/20 07:14:03;;;;;;;;;;;;;;;;;;10294842;28;20429;-62
2023/01/20 07:19:00;;;;;;;;;;;;;;;;;;10296186;28;20346;-63
2023/01/20 07:23:58;;;;;;;;;;;;;;;;;;10293137;28;19968;-63
2023/01/20 07:28:56;;;;;;;;;;;;;;;;;;10296135;28;19952;-64
2023/01/20 07:33:54;;;;;;;;;;;;;;;;;;10296866;28;19963;-64
2023/01/20 07:38:52;;;;;;;;;;;;;;;;;;10296799;28;19964;-63
2023/01/20 07:43:50;;;;;;;;;;;;;;;;;;10286316;28;19949;-63
2023/01/20 07:48:48;;;;;;;;;;;;;;;;;;10283350;28;19952;-62
2023/01/20 07:53:46;;;;;;;;;;;;;;;;;;10283654;28;19959;-63
2023/01/20 07:58:44;;;;;;;;;;;;;;;;;;10275346;28;19958;-62
2023/01/20 08:03:42;;;;;;;;;;;;;;;;;;10287015;28;19967;-62
2023/01/20 08:08:40;;;;;;;;;;;;;;;;;;10288195;28;20414;-63
2023/01/20 08:13:38;;;;;;;;;;;;;;;;;;10289425;28;19968;-63
2023/01/20 08:18:36;;;;;;;;;;;;;;;;;;10269627;28;19948;-64
2023/01/20 08:23:34;;;;;;;;;;;;;;;;;;10273315;28;19968;-63
2023/01/20 08:28:32;;;;;;;;;;;;;;;;;;10291734;28;20389;-64
2023/01/20 08:33:33;;;;;;;;;;;;;;;;;;10278320;28;20346;-61
2023/01/20 08:38:30;;;;;;;;;;;;;;;;;;10286729;28;19955;-63
2023/01/20 08:43:28;;;;;;;;;;;;;;;;;;10269537;28;19959;-63
2023/01/20 08:48:26;;;;;;;;;;;;;;;;;;10275534;28;19966;-62
2023/01/20 08:53:24;;;;;;;;;;;;;;;;;;10284637;28;19955;-63
2023/01/20 08:58:22;;;;;;;;;;;;;;;;;;10277770;28;20358;-63
2023/01/20 09:03:22;;;;;;;;;;;;;;;;;;10271237;28;19975;-64
2023/01/20 09:08:20;;;;;;;;;;;;;;;;;;10289168;28;19964;-63
2023/01/20 09:13:17;;;;;;;;;;;;;;;;;;10281371;28;19970;-63
2023/01/20 09:18:15;;;;;;;;;;;;;;;;;;10280858;28;19952;-64
2023/01/20 09:23:13;;;;;;;;;;;;;;;;;;10278840;28;19983;-61
2023/01/20 09:28:13;;;;;;;;;;;;;;;;;;10291079;28;21190;-63
2023/01/20 09:33:10;;;;;;;;;;;;;;;;;;10285283;28;20402;-61
2023/01/20 09:53:55;;;;;;;;;;;;;;;;;;10273346;28;19975;-65
2023/01/20 09:58:53;;;;;;;;;;;;;;;;;;10273608;28;19948;-65
2023/01/20 10:03:50;;;;;;;;;;;;;;;;;;10273870;28;19971;-63
2023/01/20 10:08:48;;;;;;;;;;;;;;;;;;10283195;28;19960;-63
2023/01/20 10:14:01;;;;;;;;;;;;;;;;;;10290163;28;20397;-64
2023/01/20 10:18:59;;;;;;;;;;;;;;;;;;10266715;28;19948;-64
2023/01/20 10:23:56;;;;;;;;;;;;;;;;;;10281491;28;19956;-65
2023/01/20 10:28:54;;;;;;;;;;;;;;;;;;10290786;28;19967;-65
2023/01/20 10:33:53;;;;;;;;;;;;;;;;;;10277661;28;19952;-65
2023/01/20 10:38:52;;;;;;;;;;;;;;;;;;10284011;28;20343;-68
2023/01/20 10:43:50;;;;;;;;;;;;;;;;;;10276919;28;19956;-70
2023/01/20 10:48:48;;;;;;;;;;;;;;;;;;10287568;28;19971;-70
2023/01/20 10:53:46;;;;;;;;;;;;;;;;;;10283786;28;19963;-69
2023/01/20 10:58:45;;;;;;;;;;;;;;;;;;10283034;28;20010;-70
2023/01/20 11:03:43;;;;;;;;;;;;;;;;;;10292147;28;19956;-70
2023/01/20 11:08:41;;;;;;;;;;;;;;;;;;10291363;28;20460;-70
2023/01/20 11:13:41;;;;;;;;;;;;;;;;;;10287088;28;19975;-72
2023/01/20 11:18:38;;;;;;;;;;;;;;;;;;10289279;28;19952;-71
2023/01/20 11:23:36;;;;;;;;;;;;;;;;;;10280079;28;20378;-69
2023/01/20 11:28:34;;;;;;;;;;;;;;;;;;10274862;28;19944;-70
2023/01/20 11:33:32;;;;;;;;;;;;;;;;;;10271437;28;19963;-70
2023/01/20 11:38:30;;;;;;;;;;;;;;;;;;10274161;28;19952;-70
2023/01/20 11:43:28;;;;;;;;;;;;;;;;;;10286862;28;20473;-71
2023/01/20 11:48:26;;;;;;;;;;;;;;;;;;10281091;28;20022;-71
2023/01/20 11:53:24;;;;;;;;;;;;;;;;;;10278411;28;19966;-70
2023/01/20 11:58:22;;;;;;;;;;;;;;;;;;10278660;28;19956;-71
2023/01/20 12:03:20;;;;;;;;;;;;;;;;;;10278882;28;19957;-69
2023/01/20 12:08:18;;;;;;;;;;;;;;;;;;10269623;28;19956;-70
2023/01/20 12:13:15;;;;;;;;;;;;;;;;;;10272366;28;19964;-71
2023/01/20 12:18:13;;;;;;;;;;;;;;;;;;10272482;28;19948;-71
2023/01/20 12:23:12;;;;;;;;;;;;;;;;;;10287227;28;19967;-70
2023/01/20 12:28:09;;;;;;;;;;;;;;;;;;10291974;28;19956;-70
2023/01/20 12:33:07;;;;;;;;;;;;;;;;;;10280690;28;19928;-70
2023/01/20 12:38:05;;;;;;;;;;;;;;;;;;10290978;28;19948;-70
2023/01/20 12:43:03;;;;;;;;;;;;;;;;;;10287247;28;19956;-69
2023/01/20 12:48:01;;;;;;;;;;;;;;;;;;10286203;28;19952;-69
2023/01/20 12:52:59;;;;;;;;;;;;;;;;;;10268081;28;20381;-70
2023/01/20 12:57:57;;;;;;;;;;;;;;;;;;10265114;28;19964;-70
2023/01/20 13:02:55;;;;;;;;;;;;;;;;;;10278477;28;20379;-70
2023/01/20 13:07:54;;;;;;;;;;;;;;;;;;10292845;28;20397;-71
2023/01/20 13:12:52;;;;;;;;;;;;;;;;;;10278523;28;19956;-70
2023/01/20 13:17:50;;;;;;;;;;;;;;;;;;10291581;28;19960;-70
2023/01/20 13:22:48;;;;;;;;;;;;;;;;;;10276729;28;20338;-70
2023/01/20 13:27:46;;;;;;;;;;;;;;;;;;10273792;28;20429;-71
2023/01/20 13:32:47;;;;;;;;;;;;;;;;;;10289077;28;19963;-70
2023/01/20 13:37:46;;;;;;;;;;;;;;;;;;10290368;28;20015;-71
2023/01/20 13:42:44;;;;;;;;;;;;;;;;;;10291701;28;19947;-71
2023/01/20 13:47:42;;;;;;;;;;;;;;;;;;10275841;28;19995;-70
2023/01/20 13:52:40;;;;;;;;;;;;;;;;;;10263531;28;19952;-70
2023/01/20 13:57:38;;;;;;;;;;;;;;;;;;10275065;28;19962;-71
2023/01/20 14:02:36;;;;;;;;;;;;;;;;;;10271831;28;19955;-71
2023/01/20 14:07:38;;;;;;;;;;;;;;;;;;10285390;28;19967;-71
2023/01/20 14:12:36;;;;;;;;;;;;;;;;;;10281456;28;20364;-70
2023/01/20 14:17:36;;;;;;;;;;;;;;;;;;10280368;28;19963;-70
2023/01/20 14:22:36;;;;;;;;;;;;;;;;;;10279448;28;20397;-71
2023/01/20 14:27:36;;;;;;;;;;;;;;;;;;10288618;28;20377;-71
2023/01/20 14:32:34;;;;;;;;;;;;;;;;;;10304161;28;20397;-72
2023/01/20 14:37:31;;;;;;;;;;;;;;;;;;10296341;28;19964;-71
2023/01/20 14:42:29;;;;;;;;;;;;;;;;;;10285361;28;19952;-69
2023/01/20 14:47:27;;;;;;;;;;;;;;;;;;10277987;28;20374;-70
2023/01/20 14:52:26;;;;;;;;;;;;;;;;;;10291566;28;19970;-70
2023/01/20 14:57:24;;;;;;;;;;;;;;;;;;10284208;28;19963;-70
2023/01/20 15:02:22;;;;;;;;;;;;;;;;;;10280350;28;20424;-70
2023/01/20 15:07:23;;;;;;;;;;;;;;;;;;10293275;28;19971;-70
2023/01/20 15:12:21;;;;;;;;;;;;;;;;;;10285690;28;19974;-70
2023/01/20 15:17:19;;;;;;;;;;;;;;;;;;10291474;28;19959;-70
2023/01/20 15:22:17;;;;;;;;;;;;;;;;;;10292575;28;19956;-71
2023/01/20 15:27:15;;;;;;;;;;;;;;;;;;10294857;28;19960;-69
2023/01/20 15:32:13;;;;;;;;;;;;;;;;;;10277800;28;20390;-70
2023/01/20 15:37:13;;;;;;;;;;;;;;;;;;10286706;28;19964;-69
2023/01/20 15:42:11;;;;;;;;;;;;;;;;;;10266189;28;19960;-69
2023/01/20 15:47:11;;;;;;;;;;;;;;;;;;10266962;28;19960;-68
2023/01/20 15:52:08;;;;;;;;;;;;;;;;;;10290933;28;19959;-69
2023/01/20 15:57:06;;;;;;;;;;;;;;;;;;10284963;28;19955;-69
2023/01/20 16:02:04;;;;;;;;;;;;;;;;;;10276005;28;20086;-69
2023/01/20 16:07:02;;;;;;;;;;;;;;;;;;10284247;28;19991;-67
2023/01/20 16:12:00;;;;;;;;;;;;;;;;;;10282500;28;20413;-67
2023/01/20 16:16:58;;;;;;;;;;;;;;;;;;10276263;28;20415;-69
2023/01/20 16:21:56;;;;;;;;;;;;;;;;;;10279664;28;19952;-69
2023/01/20 16:26:54;;;;;;;;;;;;;;;;;;10277244;28;20393;-68
2023/01/20 16:31:52;;;;;;;;;;;;;;;;;;10277445;28;19963;-70
2023/01/20 16:36:50;;;;;;;;;;;;;;;;;;10269899;28;20535;-69
2023/01/20 16:41:48;;;;;;;;;;;;;;;;;;10273930;28;19959;-68
2023/01/20 16:46:49;;;;;;;;;;;;;;;;;;10288243;28;19964;-69
2023/01/20 16:51:47;;;;;;;;;;;;;;;;;;10257076;28;19974;-69
2023/01/20 16:56:45;;;;;;;;;;;;;;;;;;10270175;28;20423;-69
2023/01/20 17:01:43;;;;;;;;;;;;;;;;;;10269175;28;19948;-69
2023/01/20 17:06:41;;;;;;;;;;;;;;;;;;10268169;28;19952;-69
2023/01/20 17:11:40;;;;;;;;;;;;;;;;;;10280848;28;19968;-67
2023/01/20 17:16:38;;;;;;;;;;;;;;;;;;10268442;28;20897;-68
2023/01/20 17:21:36;;;;;;;;;;;;;;;;;;10258087;28;20550;-67
2023/01/20 17:26:35;;;;;;;;;;;;;;;;;;10253460;28;19990;-69
2023/01/20 17:31:35;;;;;;;;;;;;;;;;;;10260280;28;20440;-69
2023/01/20 17:36:34;;;;;;;;;;;;;;;;;;10269548;28;19959;-70
2023/01/20 17:41:31;;;;;;;;;;;;;;;;;;10263115;28;19948;-67
2023/01/20 17:46:30;;;;;;;;;;;;;;;;;;10274445;28;20429;-69
2023/01/20 17:51:28;;;;;;;;;;;;;;;;;;10270672;28;19959;-69
2023/01/20 17:56:26;;;;;;;;;;;;;;;;;;10262332;28;19947;-69
2023/01/20 18:01:24;;;;;;;;;;;;;;;;;;10278260;28;20378;-68
2023/01/20 18:06:22;;;;;;;;;;;;;;;;;;10278686;28;19960;-69
2023/01/20 18:11:21;;;;;;;;;;;;;;;;;;10288552;28;19963;-68
2023/01/20 18:16:19;;;;;;;;;;;;;;;;;;10275336;28;19952;-68
2023/01/20 18:21:17;;;;;;;;;;;;;;;;;;10272268;28;19959;-68
2023/01/20 18:26:15;;;;;;;;;;;;;;;;;;10267869;28;20360;-67
2023/01/20 18:31:13;;;;;;;;;;;;;;;;;;10277050;28;19948;-70
2023/01/20 18:36:11;;;;;;;;;;;;;;;;;;10251369;28;20376;-69
2023/01/20 18:41:11;;;;;;;;;;;;;;;;;;10269710;28;19967;-68
2023/01/20 18:46:10;;;;;;;;;;;;;;;;;;10263922;28;19956;-69
2023/01/20 18:51:08;;;;;;;;;;;;;;;;;;10264451;28;19964;-68
2023/01/20 18:56:07;;;;;;;;;;;;;;;;;;10252129;28;20011;-68
2023/01/20 19:01:05;;;;;;;;;;;;;;;;;;10258936;28;20008;-67
2023/01/20 19:06:04;;;;;;;;;;;;;;;;;;10272597;28;20390;-69
2023/01/20 19:11:02;;;;;;;;;;;;;;;;;;10283462;28;19960;-69
2023/01/20 19:16:01;;;;;;;;;;;;;;;;;;10283875;28;19960;-68
2023/01/20 19:20:59;;;;;;;;;;;;;;;;;;10284128;28;19967;-68
2023/01/20 19:25:58;;;;;;;;;;;;;;;;;;10275103;28;20761;-67
2023/01/20 19:30:56;;;;;;;;;;;;;;;;;;10262758;28;19951;-66
2023/01/20 19:35:55;;;;;;;;;;;;;;;;;;10262753;28;19964;-66
2023/01/20 19:40:53;;;;;;;;;;;;;;;;;;10275324;28;19960;-67
2023/01/20 19:45:51;;;;;;;;;;;;;;;;;;10277571;28;19970;-66
2023/01/20 19:50:49;;;;;;;;;;;;;;;;;;10278743;28;19967;-67
2023/01/20 19:55:49;;;;;;;;;;;;;;;;;;10290710;28;19974;-68
2023/01/20 20:00:46;;;;;;;;;;;;;;;;;;10281146;28;19952;-68
2023/01/20 20:05:46;;;;;;;;;;;;;;;;;;10288084;28;19963;-66
2023/01/20 20:10:44;;;;;;;;;;;;;;;;;;10283981;28;19956;-68
2023/01/20 20:15:43;;;;;;;;;;;;;;;;;;10281582;28;20386;-69
2023/01/20 20:20:43;;;;;;;;;;;;;;;;;;10270370;28;19971;-69
2023/01/20 20:25:43;;;;;;;;;;;;;;;;;;10276158;28;19956;-69
2023/01/20 20:30:42;;;;;;;;;;;;;;;;;;10279526;28;20358;-69
2023/01/20 20:35:40;;;;;;;;;;;;;;;;;;10287851;28;20416;-68
2023/01/20 20:40:38;;;;;;;;;;;;;;;;;;10278350;28;19975;-69
2023/01/20 20:45:36;;;;;;;;;;;;;;;;;;10274458;28;19972;-67
2023/01/20 20:50:34;;;;;;;;;;;;;;;;;;10264122;28;19964;-69
2023/01/20 20:55:32;;;;;;;;;;;;;;;;;;10274591;28;19975;-67
2023/01/20 21:00:30;;;;;;;;;;;;;;;;;;10266148;28;19967;-70
2023/01/20 21:05:28;;;;;;;;;;;;;;;;;;10277151;28;19952;-68
2023/01/20 21:10:26;;;;;;;;;;;;;;;;;;10284456;28;19920;-69
2023/01/20 21:15:24;;;;;;;;;;;;;;;;;;10280939;28;19955;-68
2023/01/20 21:20:22;;;;;;;;;;;;;;;;;;10262700;28;19963;-70
2023/01/20 21:25:22;;;;;;;;;;;;;;;;;;10267505;28;19959;-72
2023/01/20 21:30:20;;;;;;;;;;;;;;;;;;10288234;28;20419;-69
2023/01/20 21:35:18;;;;;;;;;;;;;;;;;;10289942;28;19967;-70
2023/01/20 21:40:16;;;;;;;;;;;;;;;;;;10282253;28;19956;-69
2023/01/20 21:45:14;;;;;;;;;;;;;;;;;;10281330;28;19959;-69
2023/01/20 21:55:28;;;;;;;;;;;;;;;;;;10292600;28;19932;-69
2023/01/20 22:00:28;;;;;;;;;;;;;;;;;;10294180;28;19921;-69
2023/01/20 22:05:26;;;;;;;;;;;;;;;;;;10287772;28;19964;-69
2023/01/20 22:10:24;;;;;;;;;;;;;;;;;;10285049;28;19920;-69
2023/01/20 22:15:22;;;;;;;;;;;;;;;;;;10266178;28;19975;-68
2023/01/20 22:20:21;;;;;;;;;;;;;;;;;;10263025;28;19959;-68
2023/01/20 22:25:19;;;;;;;;;;;;;;;;;;10265865;28;20349;-68
2023/01/20 22:30:17;;;;;;;;;;;;;;;;;;10264784;28;19960;-68
2023/01/20 22:35:15;;;;;;;;;;;;;;;;;;10254883;28;19958;-69
2023/01/20 22:40:14;;;;;;;;;;;;;;;;;;10262186;28;20006;-69
2023/01/20 22:45:12;;;;;;;;;;;;;;;;;;10256168;28;20420;-69
2023/01/20 22:50:10;;;;;;;;;;;;;;;;;;10264317;28;19960;-69
2023/01/20 22:55:09;;;;;;;;;;;;;;;;;;10276650;28;19960;-69
2023/01/20 23:00:07;;;;;;;;;;;;;;;;;;10272676;28;20019;-71
2023/01/20 23:05:04;;;;;;;;;;;;;;;;;;10278471;28;19955;-69
2023/01/20 23:10:02;;;;;;;;;;;;;;;;;;10274418;28;19964;-69
2023/01/20 23:15:01;;;;;;;;;;;;;;;;;;10267754;28;19966;-70
2023/01/20 23:19:59;;;;;;;;;;;;;;;;;;10276545;28;19970;-69
2023/01/20 23:24:57;;;;;;;;;;;;;;;;;;10293429;28;20382;-67
2023/01/20 23:29:55;;;;;;;;;;;;;;;;;;10266790;28;19951;-69
2023/01/20 23:34:52;;;;;;;;;;;;;;;;;;10263922;28;19944;-69
2023/01/20 23:39:51;;;;;;;;;;;;;;;;;;10274274;28;20400;-69
2023/01/20 23:44:49;;;;;;;;;;;;;;;;;;10276871;28;19952;-68
2023/01/20 23:49:47;;;;;;;;;;;;;;;;;;10287062;28;19955;-69
2023/01/20 23:54:45;;;;;;;;;;;;;;;;;;10287029;28;19967;-69
2023/01/20 23:59:43;;;;;;;;;;;;;;;;;;10279806;28;19968;-69
